Station Historical Data
Daily Summary for April 17, 2011 Units:  Metric    English   Both
« Previous Day
Next Day »
Daily Weekly Monthly Yearly Custom
  High: Low: Average:
Temperature: 21.6 °C 2.3 °C 12.1 °C
Dew Point: 7.9 °C 1.8 °C 4.8 °C
Humidity: 98% 33% 66%
Wind Speed: 19.3km/h 0km/h 4.8km/h
Wind Gust: 24.1km/h - -
Wind- - SSE
Pressure: 1019.2 hPa 1013.4 hPa -
Precipitation: 0 mm    
Historical Graphs
 
 
Tabular Data for April 17, 2011
Time Temperature Dew Point Pressure Wind Wind Speed Wind Gust Humidity Rainfall Rate (Hourly) Conditions
00:00 5.4 °C 3.4 °C 1017.2 hPa Calm   1.6 km/h 87% 0 mm
00:01 5.4 °C 3.4 °C 1017.2 hPa WNW 1.6 km/h 1.6 km/h 87% 0 mm
00:06 5.5 °C 3.5 °C 1017.2 hPa WNW 1.6 km/h 1.6 km/h 87% 0 mm
00:07 5.5 °C 3.5 °C 1017.2 hPa WNW 1.6 km/h 1.6 km/h 87% 0 mm
00:12 5.6 °C 3.6 °C 1017.2 hPa WNW 1.6 km/h 1.6 km/h 87% 0 mm
00:17 5.4 °C 3.6 °C 1017.5 hPa SE 1.6 km/h 1.6 km/h 88% 0 mm
00:22 5.2 °C 3.4 °C 1017.5 hPa SE 1.6 km/h 1.6 km/h 88% 0 mm
00:27 5.2 °C 3.4 °C 1017.5 hPa SE 1.6 km/h 1.6 km/h 88% 0 mm
00:30 5.2 °C 3.3 °C 1017.5 hPa ESE 1.6 km/h 1.6 km/h 88% 0 mm
00:32 5.2 °C 3.3 °C 1017.2 hPa ESE 1.6 km/h 3.2 km/h 88% 0 mm
00:36 5.1 °C 3.2 °C 1017.5 hPa SE 1.6 km/h 3.2 km/h 88% 0 mm
00:38 5.1 °C 3.4 °C 1017.5 hPa SE 1.6 km/h 3.2 km/h 89% 0 mm
00:43 4.9 °C 3.2 °C 1017.5 hPa SE 1.6 km/h 1.6 km/h 89% 0 mm
00:48 4.8 °C 3.3 °C 1017.2 hPa Calm   1.6 km/h 90% 0 mm
00:53 4.8 °C 3.3 °C 1017.5 hPa Calm     90% 0 mm
00:54 4.7 °C 3.2 °C 1017.5 hPa Calm     90% 0 mm
00:55 4.6 °C 2.9 °C 1017.5 hPa Calm   1.6 km/h 89% 0 mm
00:58 4.4 °C 2.8 °C 1017.5 hPa Calm   1.6 km/h 89% 0 mm
01:03 4.2 °C 2.9 °C 1017.5 hPa SE 1.6 km/h 1.6 km/h 91% 0 mm
01:09 4.1 °C 2.7 °C 1017.5 hPa Calm   1.6 km/h 91% 0 mm
01:14 3.9 °C 2.7 °C 1017.5 hPa Calm     92% 0 mm
01:19 3.7 °C 2.6 °C 1017.5 hPa Calm     92% 0 mm
01:24 3.6 °C 2.6 °C 1017.5 hPa Calm     93% 0 mm
01:29 3.7 °C 2.8 °C 1017.5 hPa Calm     94% 0 mm
01:30 3.7 °C 2.8 °C 1017.5 hPa Calm     94% 0 mm
01:34 3.9 °C 3 °C 1017.2 hPa Calm     94% 0 mm
01:36 4.1 °C 3.2 °C 1017.2 hPa Calm   1.6 km/h 94% 0 mm
01:41 4.4 °C 3.4 °C 1017.2 hPa Calm     93% 0 mm
01:46 4.6 °C 3.2 °C 1017.2 hPa Calm     91% 0 mm
01:47 4.6 °C 3.2 °C 1017.2 hPa Calm     91% 0 mm
01:52 4.3 °C 3 °C 1017.2 hPa Calm     91% 0 mm
01:58 3.9 °C 2.4 °C 1017.2 hPa Calm     90% 0 mm
02:03 3.8 °C 2.7 °C 1017.2 hPa Calm     92% 0 mm
02:04 3.8 °C 2.8 °C 1017.2 hPa Calm     93% 0 mm
02:08 3.9 °C 2.9 °C 1017.2 hPa Calm   1.6 km/h 93% 0 mm
02:09 3.9 °C 2.9 °C 1017.2 hPa Calm     93% 0 mm
02:14 3.9 °C 2.7 °C 1017.5 hPa Calm     92% 0 mm
02:15 3.9 °C 2.7 °C 1017.5 hPa Calm     92% 0 mm
02:20 3.6 °C 2.4 °C 1017.5 hPa Calm     92% 0 mm
02:25 3.2 °C 2.1 °C 1017.5 hPa SSE 1.6 km/h 1.6 km/h 92% 0 mm
02:29 3.1 °C 2.1 °C 1017.5 hPa SSE 3.2 km/h 3.2 km/h 93% 0 mm
02:30 3.1 °C 2.2 °C 1017.5 hPa SSE 3.2 km/h 3.2 km/h 94% 0 mm
02:31 3.1 °C 2.2 °C 1017.5 hPa SSE 3.2 km/h 3.2 km/h 94% 0 mm
02:34 3.2 °C 2.4 °C 1017.5 hPa SSE 1.6 km/h 3.2 km/h 95% 0 mm
02:35 3.2 °C 2.5 °C 1017.5 hPa SSE 3.2 km/h 3.2 km/h 95% 0 mm
02:36 3.2 °C 2.5 °C 1017.5 hPa SSE 3.2 km/h 3.2 km/h 95% 0 mm
02:41 3.3 °C 2.8 °C 1017.5 hPa SSE 1.6 km/h 3.2 km/h 96% 0 mm
02:46 3.4 °C 2.7 °C 1017.5 hPa SE 1.6 km/h 3.2 km/h 95% 0 mm
02:51 3.6 °C 2.9 °C 1017.5 hPa SE 1.6 km/h 1.6 km/h 95% 0 mm
02:52 3.6 °C 2.9 °C 1017.5 hPa SE 1.6 km/h 1.6 km/h 95% 0 mm
02:53 3.6 °C 2.9 °C 1017.5 hPa Calm   1.6 km/h 95% 0 mm
02:58 3.6 °C 2.7 °C 1017.5 hPa Calm   1.6 km/h 94% 0 mm
03:03 3.4 °C 2.4 °C 1017.5 hPa Calm     93% 0 mm
03:08 3.1 °C 2.2 °C 1017.5 hPa Calm     94% 0 mm
03:13 3 °C 2.3 °C 1017.5 hPa Calm     95% 0 mm
03:14 3 °C 2.3 °C 1017.5 hPa Calm     95% 0 mm
03:19 3.1 °C 2.4 °C 1017.5 hPa SE 1.6 km/h 1.6 km/h 95% 0 mm
03:24 3.1 °C 2.4 °C 1017.5 hPa SE 1.6 km/h 1.6 km/h 95% 0 mm
03:29 3.2 °C 2.4 °C 1017.5 hPa SE 1.6 km/h 1.6 km/h 95% 0 mm
03:30 3.2 °C 2.4 °C 1017.5 hPa SE 1.6 km/h 1.6 km/h 95% 0 mm
03:34 3.3 °C 2.6 °C 1017.5 hPa Calm   1.6 km/h 95% 0 mm
03:40 3.1 °C 2.2 °C 1017.5 hPa Calm     94% 0 mm
03:45 2.9 °C 2.2 °C 1017.5 hPa Calm   1.6 km/h 95% 0 mm
03:50 2.9 °C 2.4 °C 1017.5 hPa Calm     96% 0 mm
03:51 2.9 °C 2.2 °C 1017.5 hPa Calm     95% 0 mm
03:54 2.9 °C 2.3 °C 1017.5 hPa Calm     96% 0 mm
03:56 2.9 °C 2.3 °C 1017.5 hPa Calm     96% 0 mm
03:57 2.9 °C 2.4 °C 1017.5 hPa Calm     96% 0 mm
03:59 2.9 °C 2.4 °C 1017.5 hPa Calm     96% 0 mm
04:04 2.8 °C 2.1 °C 1017.5 hPa Calm     95% 0 mm
04:09 2.6 °C 1.8 °C 1017.5 hPa Calm     95% 0 mm
04:14 2.6 °C 2 °C 1017.5 hPa Calm     96% 0 mm
04:19 2.6 °C 2 °C 1017.5 hPa Calm   1.6 km/h 96% 0 mm
04:25 2.5 °C 2.1 °C 1017.5 hPa Calm     97% 0 mm
04:30 2.4 °C 1.9 °C 1017.5 hPa Calm     97% 0 mm
04:33 2.3 °C 1.8 °C 1017.5 hPa Calm     96% 0 mm
04:35 2.4 °C 1.9 °C 1017.5 hPa Calm     97% 0 mm
04:36 2.4 °C 1.9 °C 1017.5 hPa Calm     97% 0 mm
04:41 2.4 °C 2 °C 1017.8 hPa Calm     97% 0 mm
04:46 2.4 °C 1.9 °C 1017.8 hPa Calm     97% 0 mm
04:51 2.4 °C 1.9 °C 1017.5 hPa Calm     97% 0 mm
04:53 2.4 °C 1.9 °C 1017.8 hPa Calm     97% 0 mm
04:56 2.3 °C 1.9 °C 1017.8 hPa Calm     97% 0 mm
04:57 2.4 °C 1.9 °C 1017.8 hPa Calm     97% 0 mm
05:02 2.5 °C 2.1 °C 1017.8 hPa Calm     97% 0 mm
05:07 2.6 °C 2.3 °C 1017.8 hPa Calm     98% 0 mm
05:12 2.6 °C 2.3 °C 1017.8 hPa Calm     98% 0 mm
05:17 2.7 °C 2.4 °C 1017.8 hPa Calm     98% 0 mm
05:22 2.8 °C 2.6 °C 1017.8 hPa Calm     98% 0 mm
05:27 2.9 °C 2.6 °C 1017.8 hPa Calm   1.6 km/h 98% 0 mm
05:30 2.9 °C 2.6 °C 1017.8 hPa Calm   1.6 km/h 98% 0 mm
05:33 2.9 °C 2.6 °C 1017.8 hPa Calm     98% 0 mm
05:35 2.9 °C 2.6 °C 1017.8 hPa Calm     98% 0 mm
05:40 2.7 °C 2.3 °C 1017.8 hPa Calm     97% 0 mm
05:45 2.8 °C 2.6 °C 1017.8 hPa Calm   1.6 km/h 98% 0 mm
05:50 2.9 °C 2.7 °C 1017.8 hPa Calm     98% 0 mm
05:51 3 °C 2.7 °C 1017.8 hPa Calm     98% 0 mm
05:56 3.1 °C 2.8 °C 1017.8 hPa Calm     98% 0 mm
05:58 3.1 °C 2.8 °C 1017.8 hPa Calm     98% 0 mm
06:01 3 °C 2.7 °C 1017.8 hPa Calm   1.6 km/h 98% 0 mm
06:06 3.1 °C 2.8 °C 1017.8 hPa Calm     98% 0 mm
06:11 3.3 °C 3.1 °C 1017.8 hPa Calm     98% 0 mm
06:17 3.4 °C 3.2 °C 1017.8 hPa Calm     98% 0 mm
06:22 3.4 °C 3.1 °C 1017.8 hPa Calm     98% 0 mm
06:27 3.2 °C 2.9 °C 1017.8 hPa Calm     98% 0 mm
06:28 3.2 °C 2.9 °C 1017.8 hPa Calm     98% 0 mm
06:33 3.2 °C 2.9 °C 1017.8 hPa Calm     98% 0 mm
06:38 3.2 °C 2.9 °C 1017.8 hPa Calm     98% 0 mm
06:43 3.2 °C 2.9 °C 1017.8 hPa Calm     98% 0 mm
06:48 3.3 °C 3.1 °C 1017.8 hPa Calm     98% 0 mm
06:53 3.6 °C 3.3 °C 1017.8 hPa Calm     98% 0 mm
06:58 3.8 °C 3.5 °C 1017.8 hPa Calm     98% 0 mm
07:03 3.9 °C 3.6 °C 1017.8 hPa West 1.6 km/h 1.6 km/h 98% 0 mm
07:09 4 °C 3.7 °C 1017.8 hPa Calm   1.6 km/h 98% 0 mm
07:14 4.1 °C 3.6 °C 1018.2 hPa West 1.6 km/h 1.6 km/h 97% 0 mm
07:19 3.9 °C 3.3 °C 1018.2 hPa Calm   1.6 km/h 96% 0 mm
07:24 3.6 °C 3.1 °C 1018.2 hPa Calm   1.6 km/h 96% 0 mm
07:29 3.4 °C 2.7 °C 1018.2 hPa Calm     95% 0 mm
07:34 3.1 °C 2.6 °C 1018.2 hPa Calm     96% 0 mm
07:35 3.1 °C 2.5 °C 1018.2 hPa Calm     96% 0 mm
07:37 3 °C 2.4 °C 1018.2 hPa Calm     96% 0 mm
07:39 2.9 °C 2.3 °C 1018.2 hPa Calm     96% 0 mm
07:44 2.8 °C 2.3 °C 1018.2 hPa Calm     96% 0 mm
07:49 2.9 °C 2.3 °C 1018.5 hPa ENE 1.6 km/h 1.6 km/h 96% 0 mm
07:54 3.1 °C 2.5 °C 1018.2 hPa Calm     96% 0 mm
07:55 3.1 °C 2.5 °C 1018.5 hPa Calm     96% 0 mm
08:00 3.4 °C 2.8 °C 1018.2 hPa Calm     96% 0 mm
08:05 3.8 °C 3.3 °C 1018.2 hPa Calm   1.6 km/h 96% 0 mm
08:10 4.2 °C 3.5 °C 1018.2 hPa Calm     95% 0 mm
08:15 4.8 °C 4.1 °C 1018.5 hPa Calm     95% 0 mm
08:20 5.1 °C 4 °C 1018.5 hPa ESE 1.6 km/h 1.6 km/h 93% 0 mm
08:25 5.3 °C 4.2 °C 1018.5 hPa ESE 1.6 km/h 1.6 km/h 93% 0 mm
08:31 5.6 °C 4.5 °C 1018.5 hPa ESE 3.2 km/h 3.2 km/h 93% 0 mm
08:36 5.8 °C 4.6 °C 1018.5 hPa SE 3.2 km/h 4.8 km/h 92% 0 mm
08:41 6.1 °C 4.8 °C 1018.5 hPa ESE 3.2 km/h 4.8 km/h 92% 0 mm
08:46 6.4 °C 5.2 °C 1018.5 hPa SE 3.2 km/h 4.8 km/h 92% 0 mm
08:47 6.4 °C 5.2 °C 1018.5 hPa SSE 3.2 km/h 4.8 km/h 92% 0 mm
08:51 6.9 °C 5.6 °C 1018.5 hPa SSE 4.8 km/h 6.4 km/h 91% 0 mm
08:52 7.1 °C 5.6 °C 1018.5 hPa SSE 6.4 km/h 6.4 km/h 90% 0 mm
08:57 7.3 °C 5.6 °C 1018.5 hPa SSE 6.4 km/h 8 km/h 89% 0 mm
08:58 7.3 °C 5.6 °C 1018.5 hPa SE 4.8 km/h 8 km/h 89% 0 mm
09:02 7.4 °C 5.7 °C 1018.8 hPa SE 3.2 km/h 6.4 km/h 89% 0 mm
09:07 7.7 °C 6 °C 1018.8 hPa SSE 3.2 km/h 4.8 km/h 89% 0 mm
09:08 7.8 °C 6.1 °C 1018.8 hPa SE 3.2 km/h 4.8 km/h 89% 0 mm
09:13 8.2 °C 6 °C 1018.8 hPa SW 1.6 km/h 3.2 km/h 86% 0 mm
09:18 8.5 °C 6.3 °C 1018.8 hPa SSW 3.2 km/h 4.8 km/h 86% 0 mm
09:23 9 °C 6.6 °C 1019.2 hPa SSW 3.2 km/h 3.2 km/h 85% 0 mm
09:28 9.3 °C 6.2 °C 1018.8 hPa SSE 3.2 km/h 4.8 km/h 81% 0 mm
09:33 9.7 °C 6.3 °C 1018.8 hPa SSE 3.2 km/h 4.8 km/h 79% 0 mm
09:38 10.2 °C 6.5 °C 1018.8 hPa SSW 4.8 km/h 6.4 km/h 78% 0 mm
09:44 10.3 °C 6.4 °C 1018.8 hPa SSW 3.2 km/h 8 km/h 77% 0 mm
09:49 10.5 °C 6.7 °C 1018.8 hPa South 4.8 km/h 9.7 km/h 77% 0 mm
09:54 10.6 °C 7.1 °C 1018.8 hPa South 3.2 km/h 8 km/h 79% 0 mm
09:58 10.8 °C 7.5 °C 1018.8 hPa SSW 4.8 km/h 6.4 km/h 80% 0 mm
09:59 10.8 °C 7.2 °C 1018.8 hPa SSW 6.4 km/h 6.4 km/h 78% 0 mm
10:04 11.1 °C 6.8 °C 1018.8 hPa South 9.7 km/h 9.7 km/h 75% 0 mm
10:09 10.9 °C 6.4 °C 1018.8 hPa SW 6.4 km/h 9.7 km/h 74% 0 mm
10:14 11.1 °C 7.6 °C 1018.8 hPa SW 8 km/h 8 km/h 79% 0 mm
10:19 11.2 °C 6.9 °C 1018.8 hPa South 3.2 km/h 8 km/h 75% 0 mm
10:24 11.5 °C 7.2 °C 1018.8 hPa SSW 4.8 km/h 8 km/h 75% 0 mm
10:29 11.7 °C 6.8 °C 1018.8 hPa SSE 3.2 km/h 6.4 km/h 72% 0 mm
10:30 11.7 °C 6.8 °C 1019.2 hPa South 3.2 km/h 6.4 km/h 72% 0 mm
10:33 11.9 °C 7 °C 1018.8 hPa WSW 3.2 km/h 6.4 km/h 72% 0 mm
10:36 12.1 °C 7.2 °C 1018.8 hPa SSE 6.4 km/h 6.4 km/h 72% 0 mm
10:38 12.1 °C 7.2 °C 1018.8 hPa WSW 3.2 km/h 6.4 km/h 72% 0 mm
10:43 12.4 °C 7.1 °C 1018.8 hPa SSW 1.6 km/h 6.4 km/h 70% 0 mm
10:48 12.8 °C 7.9 °C 1018.8 hPa SSE 4.8 km/h 6.4 km/h 72% 0 mm
10:53 13 °C 7 °C 1018.8 hPa SSE 1.6 km/h 8 km/h 67% 0 mm
10:58 13.4 °C 6.6 °C 1019.2 hPa SSE 8 km/h 9.7 km/h 63% 0 mm
10:59 13.5 °C 6.1 °C 1019.2 hPa SW 4.8 km/h 9.7 km/h 61% 0 mm
11:03 13.5 °C 5.7 °C 1019.2 hPa SW 4.8 km/h 8 km/h 59% 0 mm
11:08 13.5 °C 5.7 °C 1019.2 hPa SSW 8 km/h 8 km/h 59% 0 mm
11:13 13.7 °C 6.3 °C 1019.2 hPa SSW 4.8 km/h 12.9 km/h 61% 0 mm
11:18 14 °C 5.9 °C 1019.2 hPa WSW 9.7 km/h 11.3 km/h 58% 0 mm
11:24 14 °C 4.6 °C 1019.2 hPa WSW 3.2 km/h 8 km/h 53% 0 mm
11:29 14.2 °C 5 °C 1019.2 hPa SSW 4.8 km/h 9.7 km/h 54% 0 mm
11:34 14.4 °C 6.3 °C 1019.2 hPa SSW 4.8 km/h 11.3 km/h 58% 0 mm
11:36 14.6 °C 6.4 °C 1019.2 hPa SE 6.4 km/h 11.3 km/h 58% 0 mm
11:39 14.6 °C 4.3 °C 1019.2 hPa SE 11.3 km/h 14.5 km/h 50% 0 mm
11:44 14.7 °C 2.6 °C 1019.2 hPa SSE 6.4 km/h 11.3 km/h 44% 0 mm
11:45 14.7 °C 3.2 °C 1019.2 hPa South 4.8 km/h 11.3 km/h 46% 0 mm
11:50 14.9 °C 5.1 °C 1019.2 hPa South 9.7 km/h 9.7 km/h 52% 0 mm
11:55 15.1 °C 5.3 °C 1019.2 hPa SE 6.4 km/h 9.7 km/h 52% 0 mm
11:56 15.2 °C 4.6 °C 1019.2 hPa SSE 6.4 km/h 9.7 km/h 49% 0 mm
12:00 15.3 °C 4.6 °C 1019.2 hPa SSW 8 km/h 11.3 km/h 49% 0 mm
12:01 15.2 °C 4.6 °C 1019.2 hPa SSW 8 km/h 11.3 km/h 49% 0 mm
12:06 15.2 °C 3.7 °C 1019.2 hPa SE 11.3 km/h 11.3 km/h 46% 0 mm
12:11 15.4 °C 3.5 °C 1018.8 hPa WSW 6.4 km/h 9.7 km/h 45% 0 mm
12:16 15.3 °C 4.3 °C 1018.8 hPa WSW 6.4 km/h 14.5 km/h 48% 0 mm
12:21 15.5 °C 5.1 °C 1018.8 hPa SW 9.7 km/h 11.3 km/h 50% 0 mm
12:26 15.7 °C 4.4 °C 1018.8 hPa SE 4.8 km/h 12.9 km/h 47% 0 mm
12:27 15.7 °C 4.7 °C 1018.8 hPa SSE 6.4 km/h 12.9 km/h 48% 0 mm
12:31 15.7 °C 4.4 °C 1018.8 hPa SE 11.3 km/h 11.3 km/h 47% 0 mm
12:32 15.7 °C 4.4 °C 1018.8 hPa South 12.9 km/h 14.5 km/h 47% 0 mm
12:33 15.7 °C 5.6 °C 1018.8 hPa South 11.3 km/h 14.5 km/h 51% 0 mm
12:37 15.8 °C 5.7 °C 1018.5 hPa SSW 9.7 km/h 17.7 km/h 51% 0 mm
12:38 15.8 °C 5.2 °C 1018.5 hPa SSW 6.4 km/h 17.7 km/h 49% 0 mm
12:43 16.1 °C 5.3 °C 1018.5 hPa SW 6.4 km/h 14.5 km/h 49% 0 mm
12:48 16.3 °C 6.2 °C 1018.5 hPa SSE 12.9 km/h 16.1 km/h 51% 0 mm
12:49 16.4 °C 6.2 °C 1018.5 hPa SSE 11.3 km/h 16.1 km/h 51% 0 mm
12:54 16.4 °C 5.4 °C 1018.5 hPa South 6.4 km/h 16.1 km/h 48% 0 mm
12:59 16.6 °C 6.1 °C 1018.2 hPa SE 6.4 km/h 12.9 km/h 50% 0 mm
13:04 16.9 °C 6.4 °C 1018.2 hPa ESE 9.7 km/h 11.3 km/h 50% 0 mm
13:10 17 °C 7.3 °C 1018.2 hPa SSE 19.3 km/h 19.3 km/h 53% 0 mm
13:15 16.9 °C 7 °C 1018.2 hPa SE 4.8 km/h 11.3 km/h 52% 0 mm
13:20 17.1 °C 6.3 °C 1018.2 hPa Calm   11.3 km/h 49% 0 mm
13:25 17.2 °C 6.7 °C 1018.2 hPa SSE 6.4 km/h 14.5 km/h 50% 0 mm
13:30 17.3 °C 6.2 °C 1018.2 hPa SSW 4.8 km/h 14.5 km/h 48% 0 mm
13:31 17.4 °C 6.3 °C 1018.2 hPa South 4.8 km/h 11.3 km/h 48% 0 mm
13:35 17.4 °C 5.3 °C 1017.8 hPa WSW 9.7 km/h 16.1 km/h 45% 0 mm
13:36 17.4 °C 5.3 °C 1017.8 hPa SSW 9.7 km/h 16.1 km/h 45% 0 mm
13:41 17.7 °C 6.6 °C 1017.8 hPa SSE 12.9 km/h 16.1 km/h 48% 0 mm
13:46 17.8 °C 5.4 °C 1017.8 hPa SW 12.9 km/h 16.1 km/h 44% 0 mm
13:51 17.6 °C 4.9 °C 1018.2 hPa WSW 9.7 km/h 16.1 km/h 43% 0 mm
13:52 17.6 °C 5.2 °C 1017.8 hPa WSW 8 km/h 16.1 km/h 44% 0 mm
13:56 17.9 °C 6.2 °C 1017.8 hPa South 9.7 km/h 11.3 km/h 46% 0 mm
13:57 18 °C 6.2 °C 1017.8 hPa SSW 12.9 km/h 12.9 km/h 46% 0 mm
14:02 18.1 °C 5.3 °C 1017.8 hPa South 9.7 km/h 19.3 km/h 43% 0 mm
14:07 18.3 °C 5.2 °C 1017.8 hPa WSW 11.3 km/h 19.3 km/h 42% 0 mm
14:12 18.4 °C 4.9 °C 1017.8 hPa South 4.8 km/h 20.9 km/h 41% 0 mm
14:18 18.7 °C 7.5 °C 1017.8 hPa SSE 9.7 km/h 9.7 km/h 48% 0 mm
14:23 18.8 °C 5.3 °C 1017.5 hPa SSW 3.2 km/h 17.7 km/h 41% 0 mm
14:28 18.6 °C 6.1 °C 1017.5 hPa SW 12.9 km/h 17.7 km/h 44% 0 mm
14:33 18.8 °C 6.6 °C 1017.5 hPa WSW 9.7 km/h 14.5 km/h 45% 0 mm
14:34 18.8 °C 6.6 °C 1017.5 hPa SW 8 km/h 14.5 km/h 45% 0 mm
14:39 18.9 °C 5.7 °C 1017.2 hPa SW 12.9 km/h 19.3 km/h 42% 0 mm
14:44 18.8 °C 5.3 °C 1017.2 hPa SW 14.5 km/h 14.5 km/h 41% 0 mm
14:49 18.9 °C 6.4 °C 1017.2 hPa SSE 9.7 km/h 17.7 km/h 44% 0 mm
14:54 19.1 °C 5.5 °C 1017.2 hPa SE 11.3 km/h 12.9 km/h 41% 0 mm
14:59 19.2 °C 7.7 °C 1016.8 hPa SSE 14.5 km/h 14.5 km/h 47% 0 mm
15:04 19.1 °C 6.2 °C 1016.8 hPa SE 16.1 km/h 19.3 km/h 43% 0 mm
15:09 19.2 °C 6.6 °C 1016.8 hPa SSE 14.5 km/h 17.7 km/h 44% 0 mm
15:14 19.3 °C 6.1 °C 1016.5 hPa SSW 9.7 km/h 14.5 km/h 42% 0 mm
15:19 19.5 °C 6.9 °C 1016.5 hPa SSE 14.5 km/h 19.3 km/h 44% 0 mm
15:24 19.4 °C 6.9 °C 1016.5 hPa South 8 km/h 12.9 km/h 44% 0 mm
15:29 19.8 °C 7.9 °C 1016.1 hPa SSE 9.7 km/h 9.7 km/h 46% 0 mm
15:30 19.9 °C 7.9 °C 1016.1 hPa South 11.3 km/h 11.3 km/h 46% 0 mm
15:31 19.9 °C 7.9 °C 1016.1 hPa SSE 9.7 km/h 14.5 km/h 46% 0 mm
15:34 19.9 °C 7 °C 1016.1 hPa SSE 12.9 km/h 16.1 km/h 43% 0 mm
15:36 19.9 °C 7.6 °C 1016.1 hPa SE 8 km/h 14.5 km/h 45% 0 mm
15:39 20.1 °C 7.1 °C 1016.1 hPa SSE 17.7 km/h 19.3 km/h 43% 0 mm
15:44 20.1 °C 6.4 °C 1016.1 hPa South 12.9 km/h 20.9 km/h 41% 0 mm
15:49 20 °C 7.4 °C 1015.8 hPa SSE 12.9 km/h 14.5 km/h 44% 0 mm
15:54 20.2 °C 6.2 °C 1015.8 hPa SSE 8 km/h 19.3 km/h 40% 0 mm
15:55 20.2 °C 6.2 °C 1015.8 hPa South 6.4 km/h 19.3 km/h 40% 0 mm
16:00 20.2 °C 6.8 °C 1015.8 hPa SW 9.7 km/h 24.1 km/h 42% 0 mm
16:05 20.1 °C 4.6 °C 1015.5 hPa SSW 9.7 km/h 14.5 km/h 36% 0 mm
16:10 20.1 °C 6.4 °C 1015.5 hPa SE 14.5 km/h 22.5 km/h 41% 0 mm
16:15 20.1 °C 6.1 °C 1015.5 hPa SSE 9.7 km/h 19.3 km/h 40% 0 mm
16:20 20.1 °C 6.8 °C 1015.5 hPa SSE 8 km/h 20.9 km/h 42% 0 mm
16:21 20.1 °C 6.1 °C 1015.5 hPa South 9.7 km/h 20.9 km/h 40% 0 mm
16:26 20.4 °C 6.3 °C 1015.1 hPa SSE 11.3 km/h 14.5 km/h 40% 0 mm
16:31 20.4 °C 5.6 °C 1015.1 hPa SSW 12.9 km/h 22.5 km/h 38% 0 mm
16:32 20.4 °C 6 °C 1015.1 hPa SW 9.7 km/h 22.5 km/h 39% 0 mm
16:36 20.7 °C 4.7 °C 1015.1 hPa SW 6.4 km/h 14.5 km/h 35% 0 mm
16:37 20.7 °C 5.4 °C 1015.1 hPa South 11.3 km/h 14.5 km/h 37% 0 mm
16:42 20.7 °C 5.9 °C 1015.1 hPa South 16.1 km/h 22.5 km/h 38% 0 mm
16:47 20.7 °C 5.1 °C 1014.8 hPa SW 11.3 km/h 17.7 km/h 36% 0 mm
16:52 20.7 °C 5.1 °C 1015.1 hPa SE 14.5 km/h 20.9 km/h 36% 0 mm
16:53 20.7 °C 5.1 °C 1015.1 hPa SSE 12.9 km/h 20.9 km/h 36% 0 mm
16:58 20.8 °C 5.2 °C 1014.8 hPa SSW 8 km/h 14.5 km/h 36% 0 mm
17:03 20.8 °C 5.2 °C 1014.8 hPa ESE 16.1 km/h 19.3 km/h 36% 0 mm
17:08 21 °C 6.6 °C 1014.8 hPa SSW 9.7 km/h 12.9 km/h 39% 0 mm
17:13 21.2 °C 7.4 °C 1014.8 hPa SE 11.3 km/h 11.3 km/h 41% 0 mm
17:18 21.2 °C 6.7 °C 1014.8 hPa SSE 14.5 km/h 14.5 km/h 39% 0 mm
17:23 21.3 °C 4.8 °C 1014.4 hPa South 9.7 km/h 17.7 km/h 34% 0 mm
17:28 21.2 °C 5.5 °C 1014.4 hPa South 12.9 km/h 19.3 km/h 36% 0 mm
17:29 21.2 °C 5.6 °C 1014.4 hPa SE 16.1 km/h 19.3 km/h 36% 0 mm
17:30 21.2 °C 5.5 °C 1014.4 hPa SE 14.5 km/h 19.3 km/h 36% 0 mm
17:34 21.1 °C 5.9 °C 1014.4 hPa SSW 3.2 km/h 16.1 km/h 37% 0 mm
17:36 21.2 °C 6.3 °C 1014.4 hPa South 14.5 km/h 17.7 km/h 38% 0 mm
17:39 21.2 °C 5.1 °C 1014.4 hPa SSW 9.7 km/h 17.7 km/h 35% 0 mm
17:45 21.2 °C 4.7 °C 1014.4 hPa WSW 8 km/h 16.1 km/h 34% 0 mm
17:50 21.3 °C 4.4 °C 1014.4 hPa SSW 8 km/h 20.9 km/h 33% 0 mm
17:55 21.4 °C 5.4 °C 1014.4 hPa South 9.7 km/h 19.3 km/h 35% 0 mm
18:00 21.6 °C 5.8 °C 1014.4 hPa South 12.9 km/h 16.1 km/h 36% 0 mm
18:05 21.5 °C 5.4 °C 1014.4 hPa SE 8 km/h 16.1 km/h 35% 0 mm
18:10 21.5 °C 4.6 °C 1014.4 hPa South 8 km/h 14.5 km/h 33% 0 mm
18:15 21.6 °C 5.9 °C 1014.4 hPa SE 11.3 km/h 17.7 km/h 36% 0 mm
18:20 21.4 °C 6.1 °C 1014.4 hPa SSW 3.2 km/h 14.5 km/h 37% 0 mm
18:25 21.6 °C 5.8 °C 1014.1 hPa SSE 6.4 km/h 11.3 km/h 36% 0 mm
18:30 21.4 °C 5.3 °C 1014.1 hPa SE 16.1 km/h 16.1 km/h 35% 0 mm
18:32 21.3 °C 5.2 °C 1014.1 hPa SSW 6.4 km/h 16.1 km/h 35% 0 mm
18:33 21.3 °C 6.4 °C 1014.1 hPa SSE 9.7 km/h 16.1 km/h 38% 0 mm
18:35 21.2 °C 5.6 °C 1014.1 hPa SSE 8 km/h 12.9 km/h 36% 0 mm
18:36 21.2 °C 5.5 °C 1014.1 hPa South 9.7 km/h 12.9 km/h 36% 0 mm
18:41 21.1 °C 5.9 °C 1014.1 hPa SSE 9.7 km/h 14.5 km/h 37% 0 mm
18:46 21 °C 6.2 °C 1014.1 hPa SSE 6.4 km/h 14.5 km/h 38% 0 mm
18:51 20.9 °C 5.7 °C 1014.1 hPa SSE 9.7 km/h 9.7 km/h 37% 0 mm
18:52 20.9 °C 5.7 °C 1014.1 hPa South 9.7 km/h 9.7 km/h 37% 0 mm
18:56 20.9 °C 5.7 °C 1014.1 hPa SSE 6.4 km/h 12.9 km/h 37% 0 mm
18:57 20.9 °C 5.7 °C 1014.1 hPa SSE 8 km/h 12.9 km/h 37% 0 mm
19:00 20.8 °C 5.2 °C 1014.1 hPa SSE 4.8 km/h 11.3 km/h 36% 0 mm
19:05 20.4 °C 6.3 °C 1014.1 hPa South 6.4 km/h 9.7 km/h 40% 0 mm
19:10 20.1 °C 6.4 °C 1013.8 hPa SSE 6.4 km/h 11.3 km/h 41% 0 mm
19:15 19.9 °C 4.8 °C 1013.8 hPa SE 8 km/h 14.5 km/h 37% 0 mm
19:20 19.8 °C 6.2 °C 1013.8 hPa SE 6.4 km/h 11.3 km/h 41% 0 mm
19:25 19.5 °C 6.6 °C 1013.8 hPa SSE 6.4 km/h 8 km/h 43% 0 mm
19:26 19.5 °C 6.6 °C 1013.8 hPa SE 4.8 km/h 8 km/h 43% 0 mm
19:30 19.2 °C 7 °C 1013.8 hPa SSE 3.2 km/h 6.4 km/h 45% 0 mm
19:31 19.2 °C 7 °C 1013.8 hPa SSE 4.8 km/h 6.4 km/h 45% 0 mm
19:35 19 °C 6.8 °C 1013.8 hPa SE 6.4 km/h 6.4 km/h 45% 0 mm
19:36 18.9 °C 6.8 °C 1013.8 hPa SE 4.8 km/h 6.4 km/h 45% 0 mm
19:40 18.9 °C 5.8 °C 1013.4 hPa SE 4.8 km/h 8 km/h 42% 0 mm
19:46 19 °C 6.5 °C 1013.8 hPa SSE 3.2 km/h 6.4 km/h 44% 0 mm
19:51 19.1 °C 6.6 °C 1013.8 hPa SE 4.8 km/h 6.4 km/h 44% 0 mm
19:56 19 °C 5.8 °C 1013.8 hPa SE 4.8 km/h 6.4 km/h 42% 0 mm
19:57 19 °C 5.4 °C 1013.8 hPa SSE 6.4 km/h 6.4 km/h 41% 0 mm
20:01 19 °C 5.8 °C 1013.8 hPa SE 3.2 km/h 6.4 km/h 42% 0 mm
20:02 19 °C 5.8 °C 1013.8 hPa SE 3.2 km/h 6.4 km/h 42% 0 mm
20:06 18.9 °C 5.7 °C 1013.8 hPa SE 3.2 km/h 3.2 km/h 42% 0 mm
20:11 18.7 °C 6.2 °C 1013.8 hPa SE 1.6 km/h 3.2 km/h 44% 0 mm
20:16 18.4 °C 6.3 °C 1013.8 hPa SE 3.2 km/h 3.2 km/h 45% 0 mm
20:21 18.2 °C 6.1 °C 1013.8 hPa SE 3.2 km/h 3.2 km/h 45% 0 mm
20:26 18.1 °C 5.9 °C 1013.8 hPa SE 4.8 km/h 6.4 km/h 45% 0 mm
20:28 18.1 °C 6 °C 1013.8 hPa SE 6.4 km/h 6.4 km/h 45% 0 mm
20:32 18.1 °C 5.9 °C 1013.4 hPa SE 4.8 km/h 8 km/h 45% 0 mm
20:33 18.1 °C 5.9 °C 1013.4 hPa SE 4.8 km/h 8 km/h 45% 0 mm
20:34 18.1 °C 6.3 °C 1013.8 hPa SE 6.4 km/h 6.4 km/h 46% 0 mm
20:38 17.9 °C 6.2 °C 1013.4 hPa ESE 6.4 km/h 8 km/h 46% 0 mm
20:43 17.8 °C 6.1 °C 1013.8 hPa SE 6.4 km/h 6.4 km/h 46% 0 mm
20:48 17.7 °C 6.3 °C 1013.8 hPa SE 4.8 km/h 9.7 km/h 47% 0 mm
20:53 17.6 °C 6.1 °C 1013.8 hPa SE 6.4 km/h 6.4 km/h 47% 0 mm
20:57 17.4 °C 6.3 °C 1013.8 hPa SE 4.8 km/h 6.4 km/h 48% 0 mm
20:58 17.4 °C 6.3 °C 1013.8 hPa ESE 4.8 km/h 6.4 km/h 48% 0 mm
21:02 17.3 °C 6.5 °C 1013.8 hPa ESE 6.4 km/h 6.4 km/h 49% 0 mm
21:04 17.3 °C 6.5 °C 1013.8 hPa ESE 6.4 km/h 6.4 km/h 49% 0 mm
21:09 17.2 °C 6.4 °C 1013.8 hPa ESE 6.4 km/h 6.4 km/h 49% 0 mm
21:13 17.2 °C 6.4 °C 1013.8 hPa SE 4.8 km/h 6.4 km/h 49% 0 mm
21:19 17.1 °C 6.3 °C 1013.8 hPa SE 4.8 km/h 8 km/h 49% 0 mm
21:24 17 °C 6.5 °C 1013.8 hPa SE 6.4 km/h 8 km/h 50% 0 mm
21:25 17 °C 6.5 °C 1013.8 hPa SE 6.4 km/h 8 km/h 50% 0 mm
21:29 17 °C 6.5 °C 1013.8 hPa SE 8 km/h 8 km/h 50% 0 mm
21:30 17 °C 6.2 °C 1013.8 hPa ESE 8 km/h 8 km/h 49% 0 mm
21:31 17 °C 6.2 °C 1013.8 hPa SE 4.8 km/h 8 km/h 49% 0 mm
21:34 17 °C 6.2 °C 1013.8 hPa ESE 6.4 km/h 9.7 km/h 49% 0 mm
21:36 17 °C 6.5 °C 1013.8 hPa SE 8 km/h 9.7 km/h 50% 0 mm
21:37 17 °C 6.5 °C 1013.8 hPa SE 6.4 km/h 9.7 km/h 50% 0 mm
21:40 16.9 °C 6.4 °C 1013.8 hPa SE 6.4 km/h 11.3 km/h 50% 0 mm
21:43 16.8 °C 6.3 °C 1013.8 hPa SE 8 km/h 9.7 km/h 50% 0 mm
21:48 16.8 °C 6 °C 1013.8 hPa SE 8 km/h 9.7 km/h 49% 0 mm
21:52 16.7 °C 5.9 °C 1013.8 hPa SE 8 km/h 11.3 km/h 49% 0 mm
21:53 16.7 °C 5.9 °C 1014.1 hPa SE 8 km/h 11.3 km/h 49% 0 mm
21:58 16.6 °C 6.1 °C 1014.1 hPa SE 8 km/h 9.7 km/h 50% 0 mm
22:03 16.5 °C 5.8 °C 1014.1 hPa SE 8 km/h 12.9 km/h 49% 0 mm
22:08 16.4 °C 5.7 °C 1014.1 hPa SE 4.8 km/h 9.7 km/h 49% 0 mm
22:13 16.2 °C 5.7 °C 1014.1 hPa SE 4.8 km/h 8 km/h 50% 0 mm
22:18 15.8 °C 5.9 °C 1014.1 hPa South 3.2 km/h 6.4 km/h 52% 0 mm
22:23 15.5 °C 5.9 °C 1014.1 hPa SSE 3.2 km/h 4.8 km/h 53% 0 mm
22:28 15.2 °C 6 °C 1014.4 hPa SSE 4.8 km/h 4.8 km/h 54% 0 mm
22:29 15.2 °C 6.2 °C 1014.4 hPa SE 3.2 km/h 4.8 km/h 55% 0 mm
22:30 15.1 °C 5.9 °C 1014.1 hPa SE 4.8 km/h 4.8 km/h 54% 0 mm
22:34 14.9 °C 6 °C 1014.1 hPa SSE 3.2 km/h 4.8 km/h 55% 0 mm
22:35 14.9 °C 6 °C 1014.1 hPa SE 3.2 km/h 4.8 km/h 55% 0 mm
22:40 14.9 °C 5.7 °C 1014.1 hPa SE 3.2 km/h 4.8 km/h 54% 0 mm
22:45 14.9 °C 5.7 °C 1014.1 hPa SE 4.8 km/h 8 km/h 54% 0 mm
22:46 14.9 °C 5.7 °C 1014.1 hPa SE 4.8 km/h 8 km/h 54% 0 mm
22:50 15.1 °C 5.6 °C 1014.1 hPa SSE 6.4 km/h 6.4 km/h 53% 0 mm
22:51 15.1 °C 5.3 °C 1014.1 hPa SSE 8 km/h 9.7 km/h 52% 0 mm
22:56 15.2 °C 5.4 °C 1014.1 hPa SSE 4.8 km/h 6.4 km/h 52% 0 mm
22:57 15.2 °C 5.4 °C 1014.1 hPa SE 4.8 km/h 6.4 km/h 52% 0 mm
22:58 15.2 °C 5.7 °C 1014.1 hPa SE 3.2 km/h 6.4 km/h 53% 0 mm
23:03 15.1 °C 5.3 °C 1014.1 hPa SE 6.4 km/h 8 km/h 52% 0 mm
23:08 15.1 °C 5.3 °C 1014.1 hPa SE 6.4 km/h 8 km/h 52% 0 mm
23:13 15.1 °C 5.3 °C 1014.4 hPa SSE 4.8 km/h 9.7 km/h 52% 0 mm
23:18 14.9 °C 5.4 °C 1014.4 hPa SSE 3.2 km/h 4.8 km/h 53% 0 mm
23:23 14.8 °C 5.3 °C 1014.1 hPa SSE 6.4 km/h 6.4 km/h 53% 0 mm
23:28 14.7 °C 5.3 °C 1014.4 hPa SSE 3.2 km/h 6.4 km/h 53% 0 mm
23:31 14.6 °C 5.4 °C 1014.4 hPa SSW 1.6 km/h 4.8 km/h 54% 0 mm
23:33 14.6 °C 5.4 °C 1014.4 hPa SSE 1.6 km/h 3.2 km/h 54% 0 mm
23:36 14.6 °C 5.1 °C 1014.4 hPa SSE 3.2 km/h 3.2 km/h 53% 0 mm
23:41 14.4 °C 5.3 °C 1014.4 hPa SE 3.2 km/h 3.2 km/h 54% 0 mm
23:42 14.4 °C 5.3 °C 1014.4 hPa SE 3.2 km/h 3.2 km/h 54% 0 mm
23:47 14.2 °C 5.3 °C 1014.1 hPa SSE 3.2 km/h 3.2 km/h 55% 0 mm
23:52 14.1 °C 5.4 °C 1014.1 hPa SE 4.8 km/h 4.8 km/h 56% 0 mm
23:53 14.1 °C 5.4 °C 1014.1 hPa SSE 3.2 km/h 6.4 km/h 56% 0 mm
23:57 14.1 °C 5.4 °C 1014.1 hPa SSE 6.4 km/h 6.4 km/h 56% 0 mm
23:58 14.1 °C 5.4 °C 1014.1 hPa SE 4.8 km/h 6.4 km/h 56% 0 mm
Compliments of Weather Underground